createdAt,value
2023-03-03T00:04:57.861Z,101843.00
2023-03-03T00:10:00.160Z,101841.47
2023-03-03T00:15:13.388Z,101838.59
2023-03-03T00:20:38.841Z,101855.13
2023-03-03T00:25:44.082Z,101870.34
2023-03-03T00:30:46.006Z,101869.47
2023-03-03T00:35:49.117Z,101875.25
2023-03-03T00:40:51.262Z,101865.31
2023-03-03T00:45:54.466Z,101846.28
2023-03-03T00:50:59.745Z,101828.03
2023-03-03T00:56:01.989Z,101826.00
2023-03-03T01:01:04.201Z,101854.59
2023-03-03T01:06:07.661Z,101837.97
2023-03-03T01:11:12.877Z,101842.50
2023-03-03T01:16:15.021Z,101843.19
2023-03-03T01:21:18.549Z,101849.44
2023-03-03T01:26:20.637Z,101843.94
2023-03-03T01:31:23.065Z,101831.97
2023-03-03T01:36:29.156Z,101824.16
2023-03-03T01:41:32.150Z,101822.91
2023-03-03T01:46:54.635Z,101817.47
2023-03-03T01:52:01.396Z,101818.09
2023-03-03T01:57:12.105Z,101801.34
2023-03-03T02:02:14.317Z,101800.22
2023-03-03T02:07:19.990Z,101801.09
2023-03-03T02:12:30.679Z,101791.75
2023-03-03T02:17:33.340Z,101796.78
2023-03-03T02:22:44.268Z,101792.22
2023-03-03T02:27:48.004Z,101815.44
2023-03-03T02:32:50.408Z,101810.94
2023-03-03T02:37:52.921Z,101806.41
2023-03-03T02:42:58.643Z,101817.78
2023-03-03T02:48:00.857Z,101819.22
2023-03-03T02:53:02.914Z,101822.00
2023-03-03T02:58:06.344Z,101809.50
2023-03-03T03:03:11.581Z,101817.13
2023-03-03T03:08:13.909Z,101819.34
2023-03-03T03:13:17.449Z,101810.22
2023-03-03T03:18:19.637Z,101829.84
2023-03-03T03:23:21.773Z,101829.66
2023-03-03T03:28:25.035Z,101827.06
2023-03-03T03:33:27.339Z,101833.50
2023-03-03T03:38:29.341Z,101843.50
2023-03-03T03:43:33.660Z,101834.72
2023-03-03T03:48:36.141Z,101827.88
2023-03-03T03:53:38.217Z,101842.03
2023-03-03T03:58:42.716Z,101842.03
2023-03-03T04:03:44.968Z,101829.84
2023-03-03T04:08:47.034Z,101819.34
2023-03-03T04:13:50.541Z,101818.28
2023-03-03T04:18:52.717Z,101819.06
2023-03-03T04:23:54.834Z,101806.53
2023-03-03T04:28:58.730Z,101809.09
2023-03-03T04:34:01.450Z,101809.63
2023-03-03T04:39:04.314Z,101804.94
2023-03-03T04:44:08.440Z,101804.94
2023-03-03T04:49:12.497Z,101805.91
2023-03-03T04:54:17.229Z,101805.88
2023-03-03T04:59:20.751Z,101805.66
2023-03-03T05:04:23.235Z,101802.06
2023-03-03T05:09:25.605Z,101814.63
2023-03-03T05:14:29.004Z,101807.03
2023-03-03T05:19:30.706Z,101794.56
2023-03-03T05:24:32.807Z,101795.81
2023-03-03T05:29:36.003Z,101797.44
2023-03-03T05:34:38.539Z,101799.56
2023-03-03T05:39:40.302Z,101797.84
2023-03-03T05:44:43.446Z,101801.81
2023-03-03T05:49:48.061Z,101803.06
2023-03-03T05:54:50.242Z,101806.88
2023-03-03T05:59:57.749Z,101811.56
2023-03-03T06:04:59.925Z,101817.13
2023-03-03T06:10:02.250Z,101819.75
2023-03-03T06:15:07.582Z,101819.75
2023-03-03T06:20:12.070Z,101833.56
2023-03-03T06:25:14.213Z,101832.28
2023-03-03T06:30:18.126Z,101833.72
2023-03-03T06:35:20.633Z,101844.22
2023-03-03T06:40:22.702Z,101855.38
2023-03-03T06:45:26.296Z,101853.91
2023-03-03T06:50:28.162Z,101855.06
2023-03-03T06:55:29.964Z,101858.38
2023-03-03T07:00:33.500Z,101859.13
2023-03-03T07:05:36.138Z,101857.00
2023-03-03T07:10:39.430Z,101874.28
2023-03-03T07:15:42.881Z,101890.09
2023-03-03T07:20:45.448Z,101889.09
2023-03-03T07:25:47.668Z,101896.91
2023-03-03T07:30:51.785Z,101890.16
2023-03-03T07:35:56.536Z,101891.94
2023-03-03T07:41:02.047Z,101893.72
2023-03-03T07:46:23.279Z,101889.41
2023-03-03T07:51:27.910Z,101900.16
2023-03-03T07:56:34.720Z,101901.47
2023-03-03T08:01:40.729Z,101903.44
2023-03-03T08:06:47.314Z,101918.22
2023-03-03T08:11:54.064Z,101909.56
2023-03-03T08:17:01.716Z,101905.50
2023-03-03T08:22:17.681Z,101907.19
2023-03-03T08:27:19.537Z,101924.22
2023-03-03T08:32:23.059Z,101899.28
2023-03-03T08:37:25.769Z,101909.97
2023-03-03T08:42:27.816Z,101900.53
2023-03-03T08:47:31.750Z,101900.63
2023-03-03T08:52:34.051Z,101892.25
2023-03-03T08:57:38.572Z,101900.13
2023-03-03T09:02:42.363Z,101913.13
2023-03-03T09:07:47.609Z,101908.78
2023-03-03T09:12:50.000Z,101912.28
2023-03-03T09:17:54.157Z,101915.22
2023-03-03T09:22:56.201Z,101908.03
2023-03-03T09:28:01.806Z,101899.72
2023-03-03T09:33:24.063Z,101905.84
2023-03-03T09:38:30.035Z,101912.38
2023-03-03T09:43:39.309Z,101906.13
2023-03-03T09:48:56.030Z,101902.47
2023-03-03T09:54:11.296Z,101899.19
2023-03-03T09:59:28.267Z,101906.00
2023-03-03T10:05:05.809Z,101911.66
2023-03-03T10:10:45.998Z,101899.31
2023-03-03T10:16:03.209Z,101906.00
2023-03-03T10:21:16.081Z,101902.75
2023-03-03T10:26:43.905Z,101909.28
2023-03-03T10:31:59.926Z,101911.19
2023-03-03T10:37:13.486Z,101900.13
2023-03-03T10:42:36.019Z,101897.69
2023-03-03T10:47:56.084Z,101894.91
2023-03-03T10:53:14.424Z,101902.84
2023-03-03T10:58:46.828Z,101901.09
2023-03-03T11:04:01.299Z,101895.75
2023-03-03T11:09:16.382Z,101895.16
2023-03-03T11:14:27.694Z,101891.44
2023-03-03T11:19:40.998Z,101896.31
2023-03-03T11:24:55.883Z,101905.34
2023-03-03T11:30:09.454Z,101899.91
2023-03-03T11:35:22.859Z,101895.28
2023-03-03T11:40:31.286Z,101898.00
2023-03-03T11:45:40.632Z,101883.13
2023-03-03T11:50:51.681Z,101888.47
2023-03-03T11:56:07.511Z,101877.50
2023-03-03T12:01:21.112Z,101879.38
2023-03-03T12:06:31.688Z,101874.47
2023-03-03T12:11:46.796Z,101856.41
2023-03-03T12:16:55.713Z,101858.28
2023-03-03T12:22:17.371Z,101844.41
2023-03-03T12:27:29.390Z,101839.75
2023-03-03T12:32:50.592Z,101839.09
2023-03-03T12:37:58.692Z,101824.69
2023-03-03T12:43:24.461Z,101824.78
2023-03-03T12:48:38.826Z,101815.25
2023-03-03T12:53:53.589Z,101809.63
2023-03-03T12:59:01.919Z,101797.81
2023-03-03T13:04:11.147Z,101806.72
2023-03-03T13:09:23.934Z,101801.97
2023-03-03T13:14:37.641Z,101795.72
2023-03-03T13:19:44.357Z,101782.81
2023-03-03T13:24:58.657Z,101787.94
2023-03-03T13:30:11.285Z,101786.25
2023-03-03T13:35:25.741Z,101790.97
2023-03-03T13:40:36.330Z,101789.97
2023-03-03T13:45:56.605Z,101777.50
2023-03-03T13:51:07.092Z,101769.66
2023-03-03T13:56:24.906Z,101770.84
2023-03-03T14:01:39.240Z,101761.69
2023-03-03T14:06:48.017Z,101752.00
2023-03-03T14:11:56.524Z,101749.56
2023-03-03T14:17:04.723Z,101743.47
2023-03-03T14:22:16.693Z,101740.25
2023-03-03T14:27:24.956Z,101736.69
2023-03-03T14:32:44.395Z,101732.03
2023-03-03T14:37:50.574Z,101727.41
2023-03-03T14:42:55.958Z,101717.00
2023-03-03T14:48:05.988Z,101715.25
2023-03-03T14:53:14.072Z,101716.44
2023-03-03T14:58:33.594Z,101707.56
2023-03-03T15:03:37.761Z,101708.75
2023-03-03T15:08:41.139Z,101698.19
2023-03-03T15:13:43.289Z,101700.38
2023-03-03T15:19:06.089Z,101689.75
2023-03-03T15:24:15.959Z,101695.38
2023-03-03T15:29:26.232Z,101695.84
2023-03-03T15:34:37.750Z,101685.94
2023-03-03T15:39:48.536Z,101676.78
2023-03-03T15:45:01.960Z,101669.06
2023-03-03T15:50:16.695Z,101668.28
2023-03-03T15:55:33.682Z,101664.69
2023-03-03T16:00:53.564Z,101665.41
2023-03-03T16:06:00.280Z,101657.97
2023-03-03T16:11:08.332Z,101656.31
2023-03-03T16:16:20.442Z,101651.63
2023-03-03T16:21:38.535Z,101654.25
2023-03-03T16:26:50.643Z,101657.50
2023-03-03T16:31:58.283Z,101658.13
2023-03-03T16:37:12.483Z,101650.88
2023-03-03T16:42:24.256Z,101655.91
2023-03-03T16:47:40.774Z,101647.84
2023-03-03T16:52:49.773Z,101652.00
2023-03-03T16:58:04.520Z,101650.97
2023-03-03T17:03:33.476Z,101648.91
2023-03-03T17:08:57.558Z,101648.75
2023-03-03T17:14:15.959Z,101646.56
2023-03-03T17:19:41.153Z,101647.28
2023-03-03T17:24:54.119Z,101657.41
2023-03-03T17:30:11.221Z,101655.97
2023-03-03T17:35:29.009Z,101653.00
2023-03-03T17:40:47.330Z,101647.13
2023-03-03T17:45:54.253Z,101644.78
2023-03-03T17:51:10.270Z,101647.78
2023-03-03T17:56:19.180Z,101649.91
2023-03-03T18:01:32.885Z,101654.75
2023-03-03T18:07:10.096Z,101646.06
2023-03-03T18:12:27.347Z,101646.63
2023-03-03T18:17:35.825Z,101648.72
2023-03-03T18:22:45.769Z,101641.91
2023-03-03T18:28:22.469Z,101637.63
2023-03-03T18:33:41.231Z,101630.81
2023-03-03T18:38:48.556Z,101634.91
2023-03-03T18:43:58.429Z,101624.66
2023-03-03T18:49:04.376Z,101630.31
2023-03-03T18:54:25.380Z,101618.84
2023-03-03T18:59:48.013Z,101635.88
2023-03-03T19:04:55.591Z,101624.28
2023-03-03T19:09:59.584Z,101627.84
2023-03-03T19:15:09.479Z,101634.25
2023-03-03T19:20:16.676Z,101629.13
2023-03-03T19:25:23.501Z,101637.88
2023-03-03T19:30:42.021Z,101624.78
2023-03-03T19:35:55.264Z,101635.19
2023-03-03T19:41:18.931Z,101621.13
2023-03-03T19:46:52.917Z,101619.25
2023-03-03T19:52:03.294Z,101617.47
2023-03-03T19:57:14.298Z,101621.03
2023-03-03T20:02:33.470Z,101620.09
2023-03-03T20:07:44.654Z,101624.41
2023-03-03T20:13:02.112Z,101625.28
2023-03-03T20:18:25.437Z,101634.94
2023-03-03T20:23:34.792Z,101627.97
2023-03-03T20:28:57.366Z,101627.97
2023-03-03T20:34:11.672Z,101619.16
2023-03-03T20:39:22.115Z,101620.66
2023-03-03T20:44:38.465Z,101600.75
2023-03-03T20:49:55.033Z,101601.47
2023-03-03T20:55:10.761Z,101599.94
2023-03-03T21:00:20.513Z,101592.13
2023-03-03T21:05:24.588Z,101594.81
2023-03-03T21:10:28.829Z,101582.44
2023-03-03T21:15:33.122Z,101581.25
2023-03-03T21:20:37.248Z,101583.63
2023-03-03T21:25:44.720Z,101573.78
2023-03-03T21:31:13.698Z,101567.06
2023-03-03T21:36:19.087Z,101553.50
2023-03-03T21:41:21.441Z,101554.31
2023-03-03T21:46:24.516Z,101549.81
2023-03-03T21:51:28.413Z,101548.94
2023-03-03T21:56:30.478Z,101544.28
2023-03-03T22:01:38.186Z,101532.84
2023-03-03T22:06:42.069Z,101530.25
2023-03-03T22:11:44.464Z,101522.50
2023-03-03T22:16:46.650Z,101527.59
2023-03-03T22:21:50.147Z,101518.81
2023-03-03T22:26:51.847Z,101502.28
2023-03-03T22:31:54.156Z,101498.13
2023-03-03T22:36:57.952Z,101494.56
2023-03-03T22:42:00.195Z,101487.88
2023-03-03T22:47:02.483Z,101478.09
2023-03-03T22:52:06.249Z,101469.84
2023-03-03T22:57:08.199Z,101479.53
2023-03-03T23:02:10.516Z,101476.97
2023-03-03T23:07:13.779Z,101462.19
2023-03-03T23:12:16.297Z,101452.25
2023-03-03T23:17:18.387Z,101447.53
2023-03-03T23:22:21.787Z,101437.34
2023-03-03T23:27:23.880Z,101444.50
2023-03-03T23:32:26.212Z,101445.03
2023-03-03T23:37:29.700Z,101411.97
2023-03-03T23:42:34.201Z,101415.00
2023-03-03T23:47:36.936Z,101411.97
2023-03-03T23:52:40.403Z,101405.59
2023-03-03T23:57:42.547Z,101412.56
